Aérodrome :
LOGIN :

S'inscrire | Disclaimer

   EN    FR    IT 

 










Légende :    VFR   VFR Marginal   IFR   IFR Intensif   IFR Très Intensif
Visi : 
Plafond : 
>= 8 km
>= 3000ft
5 à 8 km
1000 à 3000 ft
1500m à 5 km
500 à 1000 ft
800 à 1500m
200 à 500 ft
< 800m
< 200 ft
Symboles :   Orages  Brouillard  Fortes neiges  Fortes précipitations  Vent > 20 kt
SIGMETs :   Divers  Orages  Givrage  Turbulence  Onde Orograph.  Cendres Volcan.







- Altitude de l'aérodrome : 529 ft
- Code IATA : CHR
- Voir les cartes d'approche


LFLX - Chateauroux

DERNIER METAR :
  • 171700Z AUTO 23011KT CAVOK 24/17 Q1019 NOSIG

METARs EXPIRÉS :
  • 171630Z AUTO 23010KT 9999 FEW030 OVC046 24/17 Q1019 NOSIG
  • 171600Z AUTO 24011KT 9999 OVC036 24/17 Q1019 NOSIG
  • 171530Z AUTO 25011KT 210V290 9999 FEW030 OVC037 24/17 Q1020 NOSIG
  • 171500Z AUTO 23011KT 9999 OVC035 24/17 Q1020 NOSIG
  • 171430Z AUTO 23010KT 9999 OVC028 23/17 Q1020 NOSIG

TAF TAF LFLX
Valide du 17 à 12h jusqu'au 18 à 18h UTC


171100Z 1712/1818 24010KT 9999 BKN045
TEMPO 1712/1718 24012G25KT
BECMG 1803/1806 BKN014
TEMPO 1808/1815 4000 -RA BKN006 SCT020TCU
PROB30
TEMPO 1809/1812 2000 RA SCT015CB
Pas de NOTAMs connus pour ce terrain.



MET'MAP, la Météo Aéronautique d'un coup d'oeil ! - Copyright ORBIFLY Décembre 2007 - Disclaimer

ORBIFLY MET'MAP TEAM :

Programmation & Développement : Alexandra Zaïnal
Conception & Développement : Baudouin d'Aumeries
Co-Programmation & Développement : Marc-Olivier Méhu
Soutien technique & logistique : Manuel Goepfert

Contact : metmap@orbifly.com




SOURCES & CREDITS :

   NOAA